sensor_id;sensor_type;location;lat;lon;timestamp;temperature;humidity
44982;DHT22;30716;41.740;-70.400;2023-06-10T00:02:14;24.40;47.70
44982;DHT22;30716;41.740;-70.400;2023-06-10T00:04:42;24.40;47.60
44982;DHT22;30716;41.740;-70.400;2023-06-10T00:07:08;24.40;47.60
44982;DHT22;30716;41.740;-70.400;2023-06-10T00:09:35;24.40;47.70
44982;DHT22;30716;41.740;-70.400;2023-06-10T00:12:04;24.30;47.60
44982;DHT22;30716;41.740;-70.400;2023-06-10T00:14:30;24.40;47.70
44982;DHT22;30716;41.740;-70.400;2023-06-10T00:16:57;24.30;47.70
44982;DHT22;30716;41.740;-70.400;2023-06-10T00:19:23;24.30;47.70
44982;DHT22;30716;41.740;-70.400;2023-06-10T00:21:51;24.30;47.80
44982;DHT22;30716;41.740;-70.400;2023-06-10T00:24:18;24.30;47.70
44982;DHT22;30716;41.740;-70.400;2023-06-10T00:26:44;24.40;47.90
44982;DHT22;30716;41.740;-70.400;2023-06-10T00:29:11;24.30;47.80
44982;DHT22;30716;41.740;-70.400;2023-06-10T00:31:38;24.30;47.80
44982;DHT22;30716;41.740;-70.400;2023-06-10T00:34:04;24.30;47.80
44982;DHT22;30716;41.740;-70.400;2023-06-10T00:36:30;24.30;47.80
44982;DHT22;30716;41.740;-70.400;2023-06-10T00:38:57;24.30;47.80
44982;DHT22;30716;41.740;-70.400;2023-06-10T00:41:23;24.30;47.80
44982;DHT22;30716;41.740;-70.400;2023-06-10T00:43:49;24.30;47.80
44982;DHT22;30716;41.740;-70.400;2023-06-10T00:46:16;24.30;48.50
44982;DHT22;30716;41.740;-70.400;2023-06-10T00:48:44;24.30;47.80
44982;DHT22;30716;41.740;-70.400;2023-06-10T00:51:11;24.40;47.70
44982;DHT22;30716;41.740;-70.400;2023-06-10T00:53:39;24.40;47.70
44982;DHT22;30716;41.740;-70.400;2023-06-10T00:56:06;24.40;47.70
44982;DHT22;30716;41.740;-70.400;2023-06-10T00:58:33;24.40;47.80
44982;DHT22;30716;41.740;-70.400;2023-06-10T01:00:59;24.40;47.80
44982;DHT22;30716;41.740;-70.400;2023-06-10T01:03:26;24.40;47.70
44982;DHT22;30716;41.740;-70.400;2023-06-10T01:05:59;24.40;48.40
44982;DHT22;30716;41.740;-70.400;2023-06-10T01:11:42;24.40;47.70
44982;DHT22;30716;41.740;-70.400;2023-06-10T01:14:17;24.40;48.30
44982;DHT22;30716;41.740;-70.400;2023-06-10T01:16:43;24.40;47.60
44982;DHT22;30716;41.740;-70.400;2023-06-10T01:19:14;24.40;47.50
44982;DHT22;30716;41.740;-70.400;2023-06-10T01:21:43;24.40;47.50
44982;DHT22;30716;41.740;-70.400;2023-06-10T01:24:15;24.40;47.60
44982;DHT22;30716;41.740;-70.400;2023-06-10T01:26:44;24.40;47.50
44982;DHT22;30716;41.740;-70.400;2023-06-10T01:29:37;24.40;47.60
44982;DHT22;30716;41.740;-70.400;2023-06-10T01:32:15;24.40;47.60
44982;DHT22;30716;41.740;-70.400;2023-06-10T01:34:44;24.40;47.40
44982;DHT22;30716;41.740;-70.400;2023-06-10T01:37:18;24.50;47.50
44982;DHT22;30716;41.740;-70.400;2023-06-10T01:39:46;24.40;47.60
44982;DHT22;30716;41.740;-70.400;2023-06-10T01:42:13;24.40;47.50
44982;DHT22;30716;41.740;-70.400;2023-06-10T01:44:43;24.40;47.50
44982;DHT22;30716;41.740;-70.400;2023-06-10T01:47:09;24.50;47.60
44982;DHT22;30716;41.740;-70.400;2023-06-10T01:49:35;24.40;47.60
44982;DHT22;30716;41.740;-70.400;2023-06-10T01:52:01;24.40;47.60
44982;DHT22;30716;41.740;-70.400;2023-06-10T01:54:28;24.40;47.70
44982;DHT22;30716;41.740;-70.400;2023-06-10T01:56:54;24.40;47.60
44982;DHT22;30716;41.740;-70.400;2023-06-10T01:59:23;24.40;47.70
44982;DHT22;30716;41.740;-70.400;2023-06-10T02:01:50;24.40;47.60
44982;DHT22;30716;41.740;-70.400;2023-06-10T02:04:16;24.40;47.60
44982;DHT22;30716;41.740;-70.400;2023-06-10T02:06:42;24.40;47.50
44982;DHT22;30716;41.740;-70.400;2023-06-10T02:09:09;24.40;47.60
44982;DHT22;30716;41.740;-70.400;2023-06-10T02:11:35;24.40;47.60
44982;DHT22;30716;41.740;-70.400;2023-06-10T02:14:01;24.40;47.60
44982;DHT22;30716;41.740;-70.400;2023-06-10T02:16:28;24.40;47.70
44982;DHT22;30716;41.740;-70.400;2023-06-10T02:18:54;24.40;47.60
44982;DHT22;30716;41.740;-70.400;2023-06-10T02:21:21;24.40;47.60
44982;DHT22;30716;41.740;-70.400;2023-06-10T02:23:48;24.40;47.70
44982;DHT22;30716;41.740;-70.400;2023-06-10T02:26:14;24.40;47.70
44982;DHT22;30716;41.740;-70.400;2023-06-10T02:28:44;24.40;47.60
44982;DHT22;30716;41.740;-70.400;2023-06-10T02:31:10;24.40;47.60
44982;DHT22;30716;41.740;-70.400;2023-06-10T02:33:37;24.40;47.70
44982;DHT22;30716;41.740;-70.400;2023-06-10T02:36:06;24.40;47.70
44982;DHT22;30716;41.740;-70.400;2023-06-10T02:38:32;24.40;47.70
44982;DHT22;30716;41.740;-70.400;2023-06-10T02:40:58;24.40;47.80
44982;DHT22;30716;41.740;-70.400;2023-06-10T02:43:25;24.40;47.80
44982;DHT22;30716;41.740;-70.400;2023-06-10T02:45:51;24.40;47.90
44982;DHT22;30716;41.740;-70.400;2023-06-10T02:48:17;24.40;48.10
44982;DHT22;30716;41.740;-70.400;2023-06-10T02:50:43;24.40;47.90
44982;DHT22;30716;41.740;-70.400;2023-06-10T02:53:09;24.40;47.90
44982;DHT22;30716;41.740;-70.400;2023-06-10T02:55:36;24.40;47.90
44982;DHT22;30716;41.740;-70.400;2023-06-10T02:58:04;24.40;47.90
44982;DHT22;30716;41.740;-70.400;2023-06-10T03:00:31;24.40;47.90
44982;DHT22;30716;41.740;-70.400;2023-06-10T03:02:57;24.40;47.90
44982;DHT22;30716;41.740;-70.400;2023-06-10T03:05:23;24.40;48.00
44982;DHT22;30716;41.740;-70.400;2023-06-10T03:07:50;24.40;47.90
44982;DHT22;30716;41.740;-70.400;2023-06-10T03:10:16;24.40;47.90
44982;DHT22;30716;41.740;-70.400;2023-06-10T03:12:42;24.40;48.00
44982;DHT22;30716;41.740;-70.400;2023-06-10T03:15:09;24.40;48.00
44982;DHT22;30716;41.740;-70.400;2023-06-10T03:17:35;24.40;48.00
44982;DHT22;30716;41.740;-70.400;2023-06-10T03:20:02;24.30;48.00
44982;DHT22;30716;41.740;-70.400;2023-06-10T03:22:31;24.30;48.00
44982;DHT22;30716;41.740;-70.400;2023-06-10T03:24:57;24.30;48.10
44982;DHT22;30716;41.740;-70.400;2023-06-10T03:27:25;24.30;48.00
44982;DHT22;30716;41.740;-70.400;2023-06-10T03:29:52;24.30;48.00
44982;DHT22;30716;41.740;-70.400;2023-06-10T03:32:19;24.40;48.20
44982;DHT22;30716;41.740;-70.400;2023-06-10T03:34:45;24.30;48.10
44982;DHT22;30716;41.740;-70.400;2023-06-10T03:37:11;24.40;48.00
44982;DHT22;30716;41.740;-70.400;2023-06-10T03:39:37;24.40;48.10
44982;DHT22;30716;41.740;-70.400;2023-06-10T03:42:03;24.40;48.00
44982;DHT22;30716;41.740;-70.400;2023-06-10T03:44:30;24.30;48.10
44982;DHT22;30716;41.740;-70.400;2023-06-10T03:46:57;24.30;48.10
44982;DHT22;30716;41.740;-70.400;2023-06-10T03:49:23;24.30;48.10
44982;DHT22;30716;41.740;-70.400;2023-06-10T03:51:53;24.30;48.10
44982;DHT22;30716;41.740;-70.400;2023-06-10T03:54:19;24.30;48.10
44982;DHT22;30716;41.740;-70.400;2023-06-10T03:56:45;24.30;48.10
44982;DHT22;30716;41.740;-70.400;2023-06-10T03:59:14;24.30;48.00
44982;DHT22;30716;41.740;-70.400;2023-06-10T04:01:40;24.40;48.10
44982;DHT22;30716;41.740;-70.400;2023-06-10T04:04:07;24.40;48.20
44982;DHT22;30716;41.740;-70.400;2023-06-10T04:06:33;24.40;48.10
44982;DHT22;30716;41.740;-70.400;2023-06-10T04:08:59;24.40;48.00
44982;DHT22;30716;41.740;-70.400;2023-06-10T04:11:25;24.40;48.00
44982;DHT22;30716;41.740;-70.400;2023-06-10T04:13:51;24.40;48.00
44982;DHT22;30716;41.740;-70.400;2023-06-10T04:16:18;24.40;47.90
44982;DHT22;30716;41.740;-70.400;2023-06-10T04:18:44;24.40;48.00
44982;DHT22;30716;41.740;-70.400;2023-06-10T04:21:10;24.40;48.00
44982;DHT22;30716;41.740;-70.400;2023-06-10T04:23:36;24.40;48.00
44982;DHT22;30716;41.740;-70.400;2023-06-10T04:26:03;24.40;48.00
44982;DHT22;30716;41.740;-70.400;2023-06-10T04:28:29;24.40;48.10
44982;DHT22;30716;41.740;-70.400;2023-06-10T04:30:55;24.40;48.00
44982;DHT22;30716;41.740;-70.400;2023-06-10T04:33:21;24.40;48.00
44982;DHT22;30716;41.740;-70.400;2023-06-10T04:35:48;24.40;47.90
44982;DHT22;30716;41.740;-70.400;2023-06-10T04:38:14;24.40;48.00
44982;DHT22;30716;41.740;-70.400;2023-06-10T04:40:40;24.40;47.90
44982;DHT22;30716;41.740;-70.400;2023-06-10T04:43:06;24.40;48.00
44982;DHT22;30716;41.740;-70.400;2023-06-10T04:45:33;24.40;47.90
44982;DHT22;30716;41.740;-70.400;2023-06-10T04:47:59;24.40;47.90
44982;DHT22;30716;41.740;-70.400;2023-06-10T04:50:26;24.40;48.00
44982;DHT22;30716;41.740;-70.400;2023-06-10T04:52:52;24.40;47.90
44982;DHT22;30716;41.740;-70.400;2023-06-10T04:55:19;24.40;47.90
44982;DHT22;30716;41.740;-70.400;2023-06-10T04:57:45;24.40;48.00
44982;DHT22;30716;41.740;-70.400;2023-06-10T05:00:11;24.40;47.90
44982;DHT22;30716;41.740;-70.400;2023-06-10T05:02:38;24.40;48.00
44982;DHT22;30716;41.740;-70.400;2023-06-10T05:05:04;24.40;47.90
44982;DHT22;30716;41.740;-70.400;2023-06-10T05:07:30;24.40;48.00
44982;DHT22;30716;41.740;-70.400;2023-06-10T05:09:56;24.40;47.90
44982;DHT22;30716;41.740;-70.400;2023-06-10T05:12:22;24.30;47.90
44982;DHT22;30716;41.740;-70.400;2023-06-10T05:14:48;24.40;48.10
44982;DHT22;30716;41.740;-70.400;2023-06-10T05:17:14;24.40;48.00
44982;DHT22;30716;41.740;-70.400;2023-06-10T05:19:41;24.40;47.90
44982;DHT22;30716;41.740;-70.400;2023-06-10T05:22:09;24.40;47.90
44982;DHT22;30716;41.740;-70.400;2023-06-10T05:24:35;24.40;47.90
44982;DHT22;30716;41.740;-70.400;2023-06-10T05:27:01;24.40;47.90
44982;DHT22;30716;41.740;-70.400;2023-06-10T05:29:28;24.40;47.90
44982;DHT22;30716;41.740;-70.400;2023-06-10T05:31:54;24.40;48.00
44982;DHT22;30716;41.740;-70.400;2023-06-10T05:34:22;24.40;48.00
44982;DHT22;30716;41.740;-70.400;2023-06-10T05:36:48;24.40;48.10
44982;DHT22;30716;41.740;-70.400;2023-06-10T05:39:15;24.40;48.10
44982;DHT22;30716;41.740;-70.400;2023-06-10T05:41:41;24.40;48.20
44982;DHT22;30716;41.740;-70.400;2023-06-10T05:44:07;24.40;48.00
44982;DHT22;30716;41.740;-70.400;2023-06-10T05:46:33;24.40;48.00
44982;DHT22;30716;41.740;-70.400;2023-06-10T05:48:59;24.40;48.00
44982;DHT22;30716;41.740;-70.400;2023-06-10T05:51:26;24.40;48.00
44982;DHT22;30716;41.740;-70.400;2023-06-10T05:53:53;24.40;48.00
44982;DHT22;30716;41.740;-70.400;2023-06-10T05:56:19;24.40;47.90
44982;DHT22;30716;41.740;-70.400;2023-06-10T05:58:47;24.40;48.10
44982;DHT22;30716;41.740;-70.400;2023-06-10T06:01:13;24.40;48.00
44982;DHT22;30716;41.740;-70.400;2023-06-10T06:03:39;24.40;47.90
44982;DHT22;30716;41.740;-70.400;2023-06-10T06:06:05;24.40;48.00
44982;DHT22;30716;41.740;-70.400;2023-06-10T06:08:32;24.40;48.00
44982;DHT22;30716;41.740;-70.400;2023-06-10T06:10:58;24.30;48.00
44982;DHT22;30716;41.740;-70.400;2023-06-10T06:13:24;24.40;48.00
44982;DHT22;30716;41.740;-70.400;2023-06-10T06:15:50;24.40;48.00
44982;DHT22;30716;41.740;-70.400;2023-06-10T06:18:16;24.40;47.80
44982;DHT22;30716;41.740;-70.400;2023-06-10T06:20:44;24.40;47.90
44982;DHT22;30716;41.740;-70.400;2023-06-10T06:23:10;24.40;47.90
44982;DHT22;30716;41.740;-70.400;2023-06-10T06:25:37;24.40;48.00
44982;DHT22;30716;41.740;-70.400;2023-06-10T06:28:07;24.40;48.00
44982;DHT22;30716;41.740;-70.400;2023-06-10T06:30:36;24.40;48.00
44982;DHT22;30716;41.740;-70.400;2023-06-10T06:33:02;24.40;47.90
44982;DHT22;30716;41.740;-70.400;2023-06-10T06:35:32;24.40;47.90
44982;DHT22;30716;41.740;-70.400;2023-06-10T06:37:59;24.40;47.80
44982;DHT22;30716;41.740;-70.400;2023-06-10T06:40:26;24.40;47.80
44982;DHT22;30716;41.740;-70.400;2023-06-10T06:42:52;24.40;47.90
44982;DHT22;30716;41.740;-70.400;2023-06-10T06:45:18;24.40;48.00
44982;DHT22;30716;41.740;-70.400;2023-06-10T06:47:44;24.40;48.00
44982;DHT22;30716;41.740;-70.400;2023-06-10T06:50:10;24.40;47.90
44982;DHT22;30716;41.740;-70.400;2023-06-10T06:52:36;24.40;48.00
44982;DHT22;30716;41.740;-70.400;2023-06-10T06:55:03;24.40;48.00
44982;DHT22;30716;41.740;-70.400;2023-06-10T06:57:29;24.40;48.10
44982;DHT22;30716;41.740;-70.400;2023-06-10T06:59:55;24.40;48.00
44982;DHT22;30716;41.740;-70.400;2023-06-10T07:02:21;24.40;47.90
44982;DHT22;30716;41.740;-70.400;2023-06-10T07:04:47;24.40;47.90
44982;DHT22;30716;41.740;-70.400;2023-06-10T07:07:15;24.40;47.80
44982;DHT22;30716;41.740;-70.400;2023-06-10T07:09:42;24.40;47.80
44982;DHT22;30716;41.740;-70.400;2023-06-10T07:12:08;24.40;47.90
44982;DHT22;30716;41.740;-70.400;2023-06-10T07:14:34;24.40;47.90
44982;DHT22;30716;41.740;-70.400;2023-06-10T07:17:00;24.40;47.80
44982;DHT22;30716;41.740;-70.400;2023-06-10T07:19:27;24.40;47.80
44982;DHT22;30716;41.740;-70.400;2023-06-10T07:21:53;24.40;47.90
44982;DHT22;30716;41.740;-70.400;2023-06-10T07:24:19;24.40;47.90
44982;DHT22;30716;41.740;-70.400;2023-06-10T07:26:45;24.40;47.80
44982;DHT22;30716;41.740;-70.400;2023-06-10T07:29:12;24.40;47.80
44982;DHT22;30716;41.740;-70.400;2023-06-10T07:31:38;24.40;47.80
44982;DHT22;30716;41.740;-70.400;2023-06-10T07:34:06;24.40;47.80
44982;DHT22;30716;41.740;-70.400;2023-06-10T07:36:32;24.40;47.80
44982;DHT22;30716;41.740;-70.400;2023-06-10T07:38:58;24.40;47.90
44982;DHT22;30716;41.740;-70.400;2023-06-10T07:41:24;24.40;48.00
44982;DHT22;30716;41.740;-70.400;2023-06-10T07:43:54;24.40;48.00
44982;DHT22;30716;41.740;-70.400;2023-06-10T07:46:22;24.40;48.00
44982;DHT22;30716;41.740;-70.400;2023-06-10T07:48:48;24.40;48.00
44982;DHT22;30716;41.740;-70.400;2023-06-10T07:51:16;24.40;48.10
44982;DHT22;30716;41.740;-70.400;2023-06-10T07:53:42;24.40;48.00
44982;DHT22;30716;41.740;-70.400;2023-06-10T07:56:08;24.40;48.00
44982;DHT22;30716;41.740;-70.400;2023-06-10T07:58:34;24.40;47.90
44982;DHT22;30716;41.740;-70.400;2023-06-10T08:01:00;24.40;48.00
44982;DHT22;30716;41.740;-70.400;2023-06-10T08:03:27;24.40;48.80
44982;DHT22;30716;41.740;-70.400;2023-06-10T08:05:53;24.40;48.10
44982;DHT22;30716;41.740;-70.400;2023-06-10T08:08:19;24.40;48.00
44982;DHT22;30716;41.740;-70.400;2023-06-10T08:10:45;24.40;48.20
44982;DHT22;30716;41.740;-70.400;2023-06-10T08:13:11;24.40;48.10
44982;DHT22;30716;41.740;-70.400;2023-06-10T08:15:37;24.40;48.10
44982;DHT22;30716;41.740;-70.400;2023-06-10T08:18:03;24.40;48.00
44982;DHT22;30716;41.740;-70.400;2023-06-10T08:20:30;24.40;48.00
44982;DHT22;30716;41.740;-70.400;2023-06-10T08:22:56;24.40;48.00
44982;DHT22;30716;41.740;-70.400;2023-06-10T08:25:22;24.40;47.90
44982;DHT22;30716;41.740;-70.400;2023-06-10T08:27:48;24.40;47.90
44982;DHT22;30716;41.740;-70.400;2023-06-10T08:30:16;24.40;48.00
44982;DHT22;30716;41.740;-70.400;2023-06-10T08:32:42;24.40;47.90
44982;DHT22;30716;41.740;-70.400;2023-06-10T08:35:08;24.40;47.90
44982;DHT22;30716;41.740;-70.400;2023-06-10T08:37:34;24.40;47.70
44982;DHT22;30716;41.740;-70.400;2023-06-10T08:40:00;24.40;47.80
44982;DHT22;30716;41.740;-70.400;2023-06-10T08:42:33;24.40;47.60
44982;DHT22;30716;41.740;-70.400;2023-06-10T08:45:02;24.40;47.60
44982;DHT22;30716;41.740;-70.400;2023-06-10T08:47:30;24.40;47.70
44982;DHT22;30716;41.740;-70.400;2023-06-10T08:50:03;24.40;47.70
44982;DHT22;30716;41.740;-70.400;2023-06-10T08:52:35;24.40;47.90
44982;DHT22;30716;41.740;-70.400;2023-06-10T08:55:23;24.40;47.90
44982;DHT22;30716;41.740;-70.400;2023-06-10T08:57:52;24.40;47.80
44982;DHT22;30716;41.740;-70.400;2023-06-10T09:00:19;24.40;47.80
44982;DHT22;30716;41.740;-70.400;2023-06-10T09:02:46;24.40;47.90
44982;DHT22;30716;41.740;-70.400;2023-06-10T09:05:13;24.40;47.80
44982;DHT22;30716;41.740;-70.400;2023-06-10T09:07:40;24.40;47.70
44982;DHT22;30716;41.740;-70.400;2023-06-10T09:10:06;24.40;47.80
44982;DHT22;30716;41.740;-70.400;2023-06-10T09:12:33;24.40;47.70
44982;DHT22;30716;41.740;-70.400;2023-06-10T09:15:01;24.40;47.80
44982;DHT22;30716;41.740;-70.400;2023-06-10T09:17:28;24.40;47.80
44982;DHT22;30716;41.740;-70.400;2023-06-10T09:19:54;24.40;47.90
44982;DHT22;30716;41.740;-70.400;2023-06-10T09:22:22;24.40;47.80
44982;DHT22;30716;41.740;-70.400;2023-06-10T09:24:49;24.40;47.90
44982;DHT22;30716;41.740;-70.400;2023-06-10T09:27:15;24.40;47.90
44982;DHT22;30716;41.740;-70.400;2023-06-10T09:29:51;24.40;47.80
44982;DHT22;30716;41.740;-70.400;2023-06-10T09:32:18;24.40;47.80
44982;DHT22;30716;41.740;-70.400;2023-06-10T09:34:46;24.40;47.80
44982;DHT22;30716;41.740;-70.400;2023-06-10T09:37:12;24.40;47.70
44982;DHT22;30716;41.740;-70.400;2023-06-10T09:39:40;24.40;47.90
44982;DHT22;30716;41.740;-70.400;2023-06-10T09:42:18;24.40;47.70
44982;DHT22;30716;41.740;-70.400;2023-06-10T09:44:51;24.40;47.80
44982;DHT22;30716;41.740;-70.400;2023-06-10T09:47:21;24.40;47.90
44982;DHT22;30716;41.740;-70.400;2023-06-10T09:49:49;24.40;47.90
44982;DHT22;30716;41.740;-70.400;2023-06-10T09:52:26;24.40;47.80
44982;DHT22;30716;41.740;-70.400;2023-06-10T09:55:02;24.40;47.80
44982;DHT22;30716;41.740;-70.400;2023-06-10T09:57:32;24.40;47.90
44982;DHT22;30716;41.740;-70.400;2023-06-10T10:00:10;24.40;47.90
44982;DHT22;30716;41.740;-70.400;2023-06-10T10:02:55;24.40;48.00
44982;DHT22;30716;41.740;-70.400;2023-06-10T10:05:22;24.40;48.70
44982;DHT22;30716;41.740;-70.400;2023-06-10T10:07:49;24.40;47.90
44982;DHT22;30716;41.740;-70.400;2023-06-10T10:10:18;24.40;47.90
44982;DHT22;30716;41.740;-70.400;2023-06-10T10:12:47;24.40;48.00
44982;DHT22;30716;41.740;-70.400;2023-06-10T10:15:15;24.40;48.70
44982;DHT22;30716;41.740;-70.400;2023-06-10T10:17:52;24.40;48.00
44982;DHT22;30716;41.740;-70.400;2023-06-10T10:20:24;24.40;47.90
44982;DHT22;30716;41.740;-70.400;2023-06-10T10:22:52;24.40;48.00
44982;DHT22;30716;41.740;-70.400;2023-06-10T10:25:38;24.40;48.00
44982;DHT22;30716;41.740;-70.400;2023-06-10T10:28:09;24.40;47.90
44982;DHT22;30716;41.740;-70.400;2023-06-10T10:30:40;24.40;47.90
44982;DHT22;30716;41.740;-70.400;2023-06-10T10:33:15;24.40;47.90
44982;DHT22;30716;41.740;-70.400;2023-06-10T10:35:43;24.40;47.70
44982;DHT22;30716;41.740;-70.400;2023-06-10T10:38:11;24.40;47.90
44982;DHT22;30716;41.740;-70.400;2023-06-10T10:40:38;24.40;47.90
44982;DHT22;30716;41.740;-70.400;2023-06-10T10:43:05;24.40;47.90
44982;DHT22;30716;41.740;-70.400;2023-06-10T10:45:35;24.40;47.90
44982;DHT22;30716;41.740;-70.400;2023-06-10T10:48:08;24.40;47.80
44982;DHT22;30716;41.740;-70.400;2023-06-10T10:50:38;24.40;48.00
44982;DHT22;30716;41.740;-70.400;2023-06-10T10:53:05;24.40;47.80
44982;DHT22;30716;41.740;-70.400;2023-06-10T10:55:32;24.40;47.90
44982;DHT22;30716;41.740;-70.400;2023-06-10T10:58:06;24.40;47.90
44982;DHT22;30716;41.740;-70.400;2023-06-10T11:00:45;24.40;47.70
44982;DHT22;30716;41.740;-70.400;2023-06-10T11:03:16;24.40;47.90
44982;DHT22;30716;41.740;-70.400;2023-06-10T11:05:49;24.40;47.90
44982;DHT22;30716;41.740;-70.400;2023-06-10T11:09:01;24.40;47.90
44982;DHT22;30716;41.740;-70.400;2023-06-10T11:11:22;24.40;47.80
44982;DHT22;30716;41.740;-70.400;2023-06-10T11:14:07;24.40;47.80
44982;DHT22;30716;41.740;-70.400;2023-06-10T11:16:42;24.40;47.80
44982;DHT22;30716;41.740;-70.400;2023-06-10T11:19:09;24.40;47.70
44982;DHT22;30716;41.740;-70.400;2023-06-10T11:22:01;24.40;47.70
44982;DHT22;30716;41.740;-70.400;2023-06-10T11:24:29;24.40;47.70
44982;DHT22;30716;41.740;-70.400;2023-06-10T11:27:22;24.40;47.80
44982;DHT22;30716;41.740;-70.400;2023-06-10T11:32:32;24.40;47.80
44982;DHT22;30716;41.740;-70.400;2023-06-10T11:34:59;24.40;47.90
44982;DHT22;30716;41.740;-70.400;2023-06-10T11:37:25;24.40;47.90
44982;DHT22;30716;41.740;-70.400;2023-06-10T11:39:55;24.40;47.90
44982;DHT22;30716;41.740;-70.400;2023-06-10T11:42:24;24.40;47.90
44982;DHT22;30716;41.740;-70.400;2023-06-10T11:44:51;24.40;47.80
44982;DHT22;30716;41.740;-70.400;2023-06-10T11:47:18;24.40;47.90
44982;DHT22;30716;41.740;-70.400;2023-06-10T11:49:46;24.40;47.90
44982;DHT22;30716;41.740;-70.400;2023-06-10T11:52:27;24.40;48.10
44982;DHT22;30716;41.740;-70.400;2023-06-10T11:54:55;24.40;47.90
44982;DHT22;30716;41.740;-70.400;2023-06-10T11:57:21;24.40;47.90
44982;DHT22;30716;41.740;-70.400;2023-06-10T11:59:47;24.40;48.00
44982;DHT22;30716;41.740;-70.400;2023-06-10T12:02:17;24.40;47.90
44982;DHT22;30716;41.740;-70.400;2023-06-10T12:04:45;24.40;47.70
44982;DHT22;30716;41.740;-70.400;2023-06-10T12:07:18;24.40;47.80
44982;DHT22;30716;41.740;-70.400;2023-06-10T12:09:45;24.40;47.70
44982;DHT22;30716;41.740;-70.400;2023-06-10T12:12:11;24.40;47.70
44982;DHT22;30716;41.740;-70.400;2023-06-10T12:17:20;24.40;47.70
44982;DHT22;30716;41.740;-70.400;2023-06-10T12:19:47;24.40;47.80
44982;DHT22;30716;41.740;-70.400;2023-06-10T12:22:14;24.40;47.90
44982;DHT22;30716;41.740;-70.400;2023-06-10T12:24:45;24.40;47.80
44982;DHT22;30716;41.740;-70.400;2023-06-10T12:27:12;24.40;47.90
44982;DHT22;30716;41.740;-70.400;2023-06-10T12:29:38;24.40;47.80
44982;DHT22;30716;41.740;-70.400;2023-06-10T12:32:05;24.40;47.70
44982;DHT22;30716;41.740;-70.400;2023-06-10T12:34:39;24.40;47.80
44982;DHT22;30716;41.740;-70.400;2023-06-10T12:37:10;24.40;47.80
44982;DHT22;30716;41.740;-70.400;2023-06-10T12:39:39;24.40;47.90
44982;DHT22;30716;41.740;-70.400;2023-06-10T12:42:06;24.40;47.80
44982;DHT22;30716;41.740;-70.400;2023-06-10T12:44:39;24.40;47.80
44982;DHT22;30716;41.740;-70.400;2023-06-10T12:47:09;24.40;47.70
44982;DHT22;30716;41.740;-70.400;2023-06-10T12:49:38;24.40;47.80
44982;DHT22;30716;41.740;-70.400;2023-06-10T12:52:05;24.40;47.90
44982;DHT22;30716;41.740;-70.400;2023-06-10T12:54:32;24.40;47.80
44982;DHT22;30716;41.740;-70.400;2023-06-10T12:56:58;24.40;47.70
44982;DHT22;30716;41.740;-70.400;2023-06-10T12:59:24;24.40;47.70
44982;DHT22;30716;41.740;-70.400;2023-06-10T13:01:54;24.40;47.60
44982;DHT22;30716;41.740;-70.400;2023-06-10T13:04:21;24.40;47.70
44982;DHT22;30716;41.740;-70.400;2023-06-10T13:06:48;24.40;47.60
44982;DHT22;30716;41.740;-70.400;2023-06-10T13:09:15;24.40;47.70
44982;DHT22;30716;41.740;-70.400;2023-06-10T13:11:42;24.40;47.60
44982;DHT22;30716;41.740;-70.400;2023-06-10T13:14:09;24.40;47.60
44982;DHT22;30716;41.740;-70.400;2023-06-10T13:16:36;24.40;47.60
44982;DHT22;30716;41.740;-70.400;2023-06-10T13:19:04;24.40;47.40
44982;DHT22;30716;41.740;-70.400;2023-06-10T13:24:06;24.40;47.60
44982;DHT22;30716;41.740;-70.400;2023-06-10T13:26:33;24.40;47.70
44982;DHT22;30716;41.740;-70.400;2023-06-10T13:28:59;24.40;47.60
44982;DHT22;30716;41.740;-70.400;2023-06-10T13:43:40;24.40;47.70
44982;DHT22;30716;41.740;-70.400;2023-06-10T13:46:06;24.60;47.00
44982;DHT22;30716;41.740;-70.400;2023-06-10T13:48:32;24.60;47.20
44982;DHT22;30716;41.740;-70.400;2023-06-10T13:50:59;24.60;47.50
44982;DHT22;30716;41.740;-70.400;2023-06-10T13:53:25;24.60;47.50
44982;DHT22;30716;41.740;-70.400;2023-06-10T13:55:52;24.50;47.50
44982;DHT22;30716;41.740;-70.400;2023-06-10T13:58:18;24.50;47.60
44982;DHT22;30716;41.740;-70.400;2023-06-10T14:00:44;24.50;47.70
44982;DHT22;30716;41.740;-70.400;2023-06-10T14:03:10;24.50;47.80
44982;DHT22;30716;41.740;-70.400;2023-06-10T14:05:36;24.50;47.70
44982;DHT22;30716;41.740;-70.400;2023-06-10T14:08:02;24.50;47.80
44982;DHT22;30716;41.740;-70.400;2023-06-10T14:10:29;24.50;47.70
44982;DHT22;30716;41.740;-70.400;2023-06-10T14:12:55;24.50;47.70
44982;DHT22;30716;41.740;-70.400;2023-06-10T14:15:21;24.50;47.60
44982;DHT22;30716;41.740;-70.400;2023-06-10T14:17:48;24.50;47.70
44982;DHT22;30716;41.740;-70.400;2023-06-10T14:20:14;24.50;47.70
44982;DHT22;30716;41.740;-70.400;2023-06-10T14:22:40;24.50;47.60
44982;DHT22;30716;41.740;-70.400;2023-06-10T14:25:06;24.50;47.60
44982;DHT22;30716;41.740;-70.400;2023-06-10T14:27:33;24.50;47.40
44982;DHT22;30716;41.740;-70.400;2023-06-10T14:29:59;24.50;47.60
44982;DHT22;30716;41.740;-70.400;2023-06-10T14:32:25;24.50;47.50
44982;DHT22;30716;41.740;-70.400;2023-06-10T14:34:51;24.50;47.60
44982;DHT22;30716;41.740;-70.400;2023-06-10T14:37:17;24.50;47.40
44982;DHT22;30716;41.740;-70.400;2023-06-10T14:39:44;24.50;47.60
44982;DHT22;30716;41.740;-70.400;2023-06-10T14:42:10;24.50;47.50
44982;DHT22;30716;41.740;-70.400;2023-06-10T14:44:36;24.50;47.50
44982;DHT22;30716;41.740;-70.400;2023-06-10T14:47:02;24.50;47.50
44982;DHT22;30716;41.740;-70.400;2023-06-10T14:49:28;24.50;47.50
44982;DHT22;30716;41.740;-70.400;2023-06-10T14:51:54;24.50;47.50
44982;DHT22;30716;41.740;-70.400;2023-06-10T14:54:20;24.50;47.40
44982;DHT22;30716;41.740;-70.400;2023-06-10T14:56:47;24.50;47.20
44982;DHT22;30716;41.740;-70.400;2023-06-10T14:59:13;24.50;47.20
44982;DHT22;30716;41.740;-70.400;2023-06-10T15:01:40;24.50;47.10
44982;DHT22;30716;41.740;-70.400;2023-06-10T15:04:06;24.50;46.90
44982;DHT22;30716;41.740;-70.400;2023-06-10T15:06:32;24.40;47.10
44982;DHT22;30716;41.740;-70.400;2023-06-10T15:08:59;24.40;47.30
44982;DHT22;30716;41.740;-70.400;2023-06-10T15:11:25;24.40;47.30
44982;DHT22;30716;41.740;-70.400;2023-06-10T15:13:52;24.40;47.40
44982;DHT22;30716;41.740;-70.400;2023-06-10T15:16:19;24.40;47.30
44982;DHT22;30716;41.740;-70.400;2023-06-10T15:18:45;24.50;47.30
44982;DHT22;30716;41.740;-70.400;2023-06-10T15:21:11;24.50;47.40
44982;DHT22;30716;41.740;-70.400;2023-06-10T15:23:38;24.50;47.30
44982;DHT22;30716;41.740;-70.400;2023-06-10T15:26:04;24.50;47.30
44982;DHT22;30716;41.740;-70.400;2023-06-10T15:28:30;24.50;47.40
44982;DHT22;30716;41.740;-70.400;2023-06-10T15:30:56;24.50;47.50